createdAt,value
2022-10-19T00:01:05.977Z,10.63
2022-10-19T00:03:34.854Z,10.55
2022-10-19T00:06:29.515Z,10.77
2022-10-19T00:09:00.782Z,10.85
2022-10-19T00:11:29.745Z,10.87
2022-10-19T00:13:58.549Z,10.97
2022-10-19T00:16:31.735Z,10.97
2022-10-19T00:19:04.595Z,10.69
2022-10-19T00:21:32.005Z,10.79
2022-10-19T00:23:59.089Z,10.85
2022-10-19T00:26:27.918Z,10.74
2022-10-19T00:28:56.326Z,10.38
2022-10-19T00:31:24.123Z,10.51
2022-10-19T00:33:51.264Z,10.73
2022-10-19T00:36:34.057Z,10.89
2022-10-19T00:39:01.637Z,10.85
2022-10-19T00:41:31.847Z,10.84
2022-10-19T00:44:00.657Z,10.82
2022-10-19T00:46:30.515Z,10.80
2022-10-19T00:49:10.894Z,10.79
2022-10-19T00:51:42.583Z,10.90
2022-10-19T00:54:10.168Z,10.91
2022-10-19T00:56:40.831Z,10.89
2022-10-19T00:59:09.433Z,10.59
2022-10-19T01:01:36.830Z,10.72
2022-10-19T01:04:04.855Z,10.75
2022-10-19T01:06:33.368Z,10.84
2022-10-19T01:09:00.430Z,10.91
2022-10-19T01:11:49.060Z,10.97
2022-10-19T01:14:53.501Z,11.01
2022-10-19T01:17:40.700Z,11.05
2022-10-19T01:20:42.547Z,11.02
2022-10-19T01:23:31.599Z,11.06
2022-10-19T01:26:19.741Z,11.05
2022-10-19T01:28:58.669Z,11.05
2022-10-19T01:31:31.623Z,11.06
2022-10-19T01:34:04.508Z,11.04
2022-10-19T01:37:08.567Z,10.94
2022-10-19T01:39:44.288Z,10.92
2022-10-19T01:42:23.221Z,10.61
2022-10-19T01:44:56.773Z,10.56
2022-10-19T01:47:30.960Z,10.53
2022-10-19T01:50:10.178Z,10.21
2022-10-19T01:52:39.712Z,10.01
2022-10-19T01:55:09.819Z,10.00
2022-10-19T01:57:41.955Z,10.05
2022-10-19T02:00:12.369Z,10.26
2022-10-19T02:02:45.337Z,10.35
2022-10-19T02:05:13.544Z,10.32
2022-10-19T02:07:45.216Z,10.31
2022-10-19T02:10:12.395Z,10.43
2022-10-19T02:12:41.663Z,10.43
2022-10-19T02:15:17.390Z,10.57
2022-10-19T02:17:48.977Z,10.35
2022-10-19T02:20:17.095Z,10.31
2022-10-19T02:22:44.733Z,10.05
2022-10-19T02:25:12.950Z,10.24
2022-10-19T02:27:43.932Z,10.48
2022-10-19T02:30:17.469Z,10.52
2022-10-19T02:32:44.778Z,10.55
2022-10-19T02:35:14.655Z,10.48
2022-10-19T02:37:42.302Z,10.55
2022-10-19T02:40:10.492Z,10.54
2022-10-19T02:42:56.123Z,10.28
2022-10-19T02:45:33.812Z,10.27
2022-10-19T02:48:28.992Z,10.46
2022-10-19T02:50:56.084Z,10.36
2022-10-19T02:53:23.248Z,10.15
2022-10-19T02:55:51.745Z,10.29
2022-10-19T02:58:18.865Z,10.22
2022-10-19T03:00:45.934Z,10.25
2022-10-19T03:03:13.056Z,10.29
2022-10-19T03:05:40.209Z,10.14
2022-10-19T03:08:07.329Z,10.15
2022-10-19T03:10:34.479Z,10.06
2022-10-19T03:13:01.540Z,10.11
2022-10-19T03:15:30.027Z,10.15
2022-10-19T03:17:57.305Z,10.05
2022-10-19T03:20:24.543Z,10.00
2022-10-19T03:25:23.787Z,9.78
2022-10-19T03:27:53.514Z,9.67
2022-10-19T03:30:20.566Z,9.62
2022-10-19T03:32:47.645Z,9.53
2022-10-19T03:35:14.720Z,9.74
2022-10-19T03:37:41.804Z,9.76
2022-10-19T03:40:09.391Z,9.70
2022-10-19T03:42:36.608Z,9.39
2022-10-19T03:45:04.216Z,9.50
2022-10-19T03:47:31.807Z,9.57
2022-10-19T03:49:59.048Z,9.74
2022-10-19T03:52:26.175Z,9.80
2022-10-19T03:54:53.271Z,10.00
2022-10-19T03:57:20.380Z,9.96
2022-10-19T03:59:47.448Z,9.80
2022-10-19T04:02:14.464Z,9.43
2022-10-19T04:04:41.536Z,9.38
2022-10-19T04:07:08.567Z,9.28
2022-10-19T04:09:35.657Z,9.30
2022-10-19T04:12:03.475Z,9.07
2022-10-19T04:14:45.805Z,8.99
2022-10-19T04:17:20.066Z,9.08
2022-10-19T04:19:47.127Z,9.25
2022-10-19T04:22:14.139Z,9.10
2022-10-19T04:24:41.264Z,9.04
2022-10-19T04:27:08.333Z,8.92
2022-10-19T04:29:35.429Z,8.95
2022-10-19T04:32:02.512Z,8.99
2022-10-19T04:34:29.575Z,9.04
2022-10-19T04:36:59.546Z,8.75
2022-10-19T04:39:26.815Z,9.02
2022-10-19T04:41:53.950Z,9.00
2022-10-19T04:44:21.231Z,8.84
2022-10-19T04:46:48.320Z,8.71
2022-10-19T04:49:17.964Z,8.92
2022-10-19T04:51:49.167Z,9.08
2022-10-19T04:54:16.223Z,8.96
2022-10-19T04:56:43.783Z,9.00
2022-10-19T04:59:10.939Z,9.07
2022-10-19T05:01:40.430Z,9.04
2022-10-19T05:04:10.311Z,8.77
2022-10-19T05:06:38.199Z,8.67
2022-10-19T05:09:05.337Z,8.59
2022-10-19T05:11:32.358Z,8.83
2022-10-19T05:13:59.397Z,9.01
2022-10-19T05:16:26.557Z,8.90
2022-10-19T05:18:59.733Z,9.12
2022-10-19T05:21:28.847Z,8.97
2022-10-19T05:23:56.970Z,9.03
2022-10-19T05:26:27.281Z,9.31
2022-10-19T05:28:57.703Z,8.95
2022-10-19T05:31:27.674Z,8.80
2022-10-19T05:33:56.464Z,8.91
2022-10-19T05:36:29.345Z,9.05
2022-10-19T05:38:57.675Z,8.84
2022-10-19T05:41:26.449Z,8.65
2022-10-19T05:43:58.739Z,8.54
2022-10-19T05:46:27.617Z,8.42
2022-10-19T05:48:55.916Z,8.09
2022-10-19T05:51:24.034Z,8.33
2022-10-19T05:53:53.525Z,8.47
2022-10-19T05:56:23.780Z,8.47
2022-10-19T05:58:51.810Z,8.59
2022-10-19T06:01:20.033Z,8.71
2022-10-19T06:03:50.839Z,9.02
2022-10-19T06:06:18.210Z,8.88
2022-10-19T06:08:45.773Z,8.70
2022-10-19T06:11:16.826Z,8.62
2022-10-19T06:13:46.142Z,8.76
2022-10-19T06:16:15.562Z,8.79
2022-10-19T06:18:43.010Z,8.62
2022-10-19T06:21:16.519Z,8.68
2022-10-19T06:23:43.928Z,8.68
2022-10-19T06:26:13.378Z,8.53
2022-10-19T06:28:41.900Z,8.44
2022-10-19T06:31:09.819Z,8.54
2022-10-19T06:33:38.937Z,8.62
2022-10-19T06:36:13.817Z,8.80
2022-10-19T06:38:41.998Z,8.93
2022-10-19T06:41:10.030Z,8.75
2022-10-19T06:43:37.238Z,8.68
2022-10-19T06:46:09.949Z,8.60
2022-10-19T06:48:37.154Z,8.63
2022-10-19T06:51:07.519Z,8.84
2022-10-19T06:53:35.462Z,8.88
2022-10-19T06:56:04.569Z,8.67
2022-10-19T06:58:35.260Z,8.44
2022-10-19T07:01:02.480Z,8.47
2022-10-19T07:03:30.205Z,8.67
2022-10-19T07:06:00.462Z,8.46
2022-10-19T07:08:29.977Z,8.53
2022-10-19T07:11:00.210Z,8.47
2022-10-19T07:13:28.830Z,8.60
2022-10-19T07:16:19.794Z,8.50
2022-10-19T07:18:53.010Z,8.49
2022-10-19T07:21:22.281Z,8.49
2022-10-19T07:23:49.786Z,8.36
2022-10-19T07:26:21.466Z,8.29
2022-10-19T07:28:49.324Z,8.48
2022-10-19T07:31:20.245Z,8.52
2022-10-19T07:33:51.439Z,8.47
2022-10-19T07:36:18.489Z,8.39
2022-10-19T07:38:45.550Z,8.53
2022-10-19T07:41:15.488Z,8.64
2022-10-19T07:43:45.174Z,8.42
2022-10-19T07:46:15.515Z,8.25
2022-10-19T07:48:43.934Z,8.31
2022-10-19T07:51:12.402Z,8.37
2022-10-19T07:53:41.110Z,8.19
2022-10-19T07:56:11.527Z,8.14
2022-10-19T07:58:39.008Z,8.25
2022-10-19T08:01:12.136Z,8.39
2022-10-19T08:06:27.701Z,8.72
2022-10-19T08:08:55.378Z,8.82
2022-10-19T08:11:24.396Z,8.38
2022-10-19T08:13:52.271Z,8.68
2022-10-19T08:16:44.535Z,8.80
2022-10-19T08:19:13.991Z,8.78
2022-10-19T08:21:44.192Z,8.84
2022-10-19T08:24:13.543Z,8.96
2022-10-19T08:26:41.843Z,8.80
2022-10-19T08:29:18.106Z,8.49
2022-10-19T08:31:46.668Z,8.45
2022-10-19T08:34:14.589Z,8.71
2022-10-19T08:39:14.524Z,8.51
2022-10-19T08:41:53.259Z,8.33
2022-10-19T08:44:52.044Z,8.41
2022-10-19T08:47:31.369Z,8.58
2022-10-19T08:49:59.879Z,8.55
2022-10-19T08:52:36.048Z,8.41
2022-10-19T08:55:19.796Z,8.45
2022-10-19T08:57:53.691Z,8.59
2022-10-19T09:03:54.433Z,8.57
2022-10-19T09:06:45.594Z,8.79
2022-10-19T09:09:14.043Z,8.83
2022-10-19T09:11:49.179Z,8.97
2022-10-19T09:14:23.051Z,9.03
2022-10-19T09:16:50.116Z,8.75
2022-10-19T09:19:26.307Z,8.67
2022-10-19T09:21:57.771Z,8.83
2022-10-19T09:24:51.929Z,9.22
2022-10-19T09:27:30.236Z,9.34
2022-10-19T09:29:59.432Z,8.86
2022-10-19T09:32:38.597Z,8.75
2022-10-19T09:35:41.164Z,8.73
2022-10-19T09:38:08.487Z,8.97
2022-10-19T09:40:35.755Z,9.09
2022-10-19T09:43:19.581Z,8.98
2022-10-19T09:45:58.511Z,8.94
2022-10-19T09:48:47.883Z,9.04
2022-10-19T09:51:16.835Z,9.13
2022-10-19T09:53:50.023Z,9.04
2022-10-19T09:56:25.391Z,9.01
2022-10-19T09:58:57.753Z,9.27
2022-10-19T10:01:41.518Z,9.32
2022-10-19T10:04:14.546Z,9.39
2022-10-19T10:06:43.323Z,9.28
2022-10-19T10:09:17.625Z,9.15
2022-10-19T10:11:48.144Z,9.44
2022-10-19T10:14:23.679Z,9.66
2022-10-19T10:16:56.490Z,9.46
2022-10-19T10:19:28.895Z,9.42
2022-10-19T10:21:58.147Z,9.26
2022-10-19T10:24:28.595Z,9.22
2022-10-19T10:26:56.930Z,9.31
2022-10-19T10:29:28.102Z,9.45
2022-10-19T10:32:04.030Z,9.17
2022-10-19T10:34:50.071Z,9.18
2022-10-19T10:37:28.252Z,9.17
2022-10-19T10:40:00.334Z,8.95
2022-10-19T10:42:43.903Z,9.15
2022-10-19T10:45:20.379Z,9.17
2022-10-19T10:47:48.597Z,9.40
2022-10-19T10:50:22.462Z,9.17
2022-10-19T10:53:29.638Z,9.27
2022-10-19T10:55:57.469Z,9.25
2022-10-19T10:58:37.264Z,9.04
2022-10-19T11:01:13.301Z,9.15
2022-10-19T11:03:46.753Z,9.23
2022-10-19T11:06:17.142Z,9.49
2022-10-19T11:08:44.173Z,9.57
2022-10-19T11:11:17.269Z,9.83
2022-10-19T11:13:50.020Z,9.80
2022-10-19T11:16:19.895Z,9.49
2022-10-19T11:19:22.942Z,9.09
2022-10-19T11:22:26.392Z,9.02
2022-10-19T11:25:12.513Z,8.96
2022-10-19T11:27:56.159Z,8.79
2022-10-19T11:30:25.200Z,8.53
2022-10-19T11:33:01.556Z,8.54
2022-10-19T11:35:39.265Z,8.82
2022-10-19T11:38:30.078Z,8.86
2022-10-19T11:41:22.224Z,8.87
2022-10-19T11:43:58.452Z,9.00
2022-10-19T11:46:54.840Z,9.04
2022-10-19T11:49:27.536Z,9.16
2022-10-19T11:51:58.631Z,9.33
2022-10-19T11:54:43.666Z,9.41
2022-10-19T11:57:19.559Z,9.32
2022-10-19T12:00:08.147Z,9.73
2022-10-19T12:02:53.492Z,9.76
2022-10-19T12:05:35.616Z,9.47
2022-10-19T12:08:07.589Z,9.64
2022-10-19T12:11:23.696Z,9.79
2022-10-19T12:13:56.084Z,9.51
2022-10-19T12:16:31.006Z,9.51
2022-10-19T12:19:01.049Z,9.25
2022-10-19T12:21:30.004Z,9.27
2022-10-19T12:24:03.769Z,9.60
2022-10-19T12:26:35.506Z,9.45
2022-10-19T12:29:07.425Z,9.38
2022-10-19T12:31:36.110Z,9.40
2022-10-19T12:34:23.369Z,9.00
2022-10-19T12:36:55.055Z,8.96
2022-10-19T12:39:49.854Z,8.80
2022-10-19T12:42:26.337Z,8.90
2022-10-19T12:45:21.241Z,8.99
2022-10-19T12:48:13.110Z,9.17
2022-10-19T12:50:49.454Z,9.46
2022-10-19T12:53:44.670Z,9.24
2022-10-19T12:56:19.875Z,9.14
2022-10-19T12:58:50.869Z,8.94
2022-10-19T13:01:24.132Z,9.12
2022-10-19T13:04:16.329Z,9.46
2022-10-19T13:06:51.443Z,9.52
2022-10-19T13:09:33.811Z,9.58
2022-10-19T13:12:19.617Z,9.30
2022-10-19T13:14:58.938Z,9.42
2022-10-19T13:17:37.863Z,9.79
2022-10-19T13:20:14.408Z,9.92
2022-10-19T13:22:41.671Z,9.61
2022-10-19T13:25:28.087Z,9.25
2022-10-19T13:28:07.716Z,9.35
2022-10-19T13:30:43.234Z,9.34
2022-10-19T13:33:25.687Z,9.17
2022-10-19T13:36:13.514Z,9.26
2022-10-19T13:38:58.611Z,9.21
2022-10-19T13:41:46.904Z,9.09
2022-10-19T13:44:15.273Z,8.99
2022-10-19T13:46:55.537Z,9.14
2022-10-19T13:49:53.330Z,9.42
2022-10-19T13:52:26.499Z,9.18
2022-10-19T13:55:28.694Z,9.52
2022-10-19T13:58:17.696Z,9.49
2022-10-19T14:01:31.263Z,9.43
2022-10-19T14:04:24.238Z,9.37
2022-10-19T14:07:00.547Z,9.13
2022-10-19T14:09:37.333Z,9.10
2022-10-19T14:12:10.216Z,9.18
2022-10-19T14:14:44.842Z,9.12
2022-10-19T14:17:42.408Z,9.10
2022-10-19T14:20:42.039Z,9.09
2022-10-19T14:23:25.947Z,9.11
2022-10-19T14:26:05.646Z,9.10
2022-10-19T14:28:33.944Z,8.96
2022-10-19T14:31:03.972Z,9.27
2022-10-19T14:33:35.209Z,9.44
2022-10-19T14:36:02.806Z,9.35
2022-10-19T14:38:43.441Z,9.26
2022-10-19T14:41:29.214Z,9.04
2022-10-19T14:43:58.254Z,8.98
2022-10-19T14:46:33.523Z,9.15
2022-10-19T14:49:03.325Z,9.13
2022-10-19T14:51:33.353Z,9.01
2022-10-19T14:54:24.852Z,9.04
2022-10-19T14:57:08.273Z,9.11
2022-10-19T15:02:21.761Z,9.32
2022-10-19T15:04:49.979Z,9.52
2022-10-19T15:07:30.308Z,9.61
2022-10-19T15:10:01.249Z,9.04
2022-10-19T15:12:38.029Z,8.98
2022-10-19T15:15:28.021Z,8.97
2022-10-19T15:17:57.085Z,9.22
2022-10-19T15:20:28.121Z,9.14
2022-10-19T15:22:56.857Z,9.05
2022-10-19T15:25:29.678Z,9.41
2022-10-19T15:27:57.789Z,9.43
2022-10-19T15:30:31.508Z,9.18
2022-10-19T15:33:02.918Z,9.32
2022-10-19T15:35:33.268Z,9.47
2022-10-19T15:38:05.075Z,9.50
2022-10-19T15:40:35.509Z,9.29
2022-10-19T15:43:34.294Z,9.27
2022-10-19T15:46:04.397Z,9.02
2022-10-19T15:48:40.442Z,8.67
2022-10-19T15:51:23.245Z,8.97
2022-10-19T15:54:00.892Z,9.04
2022-10-19T15:56:30.608Z,8.93
2022-10-19T15:58:59.792Z,8.46
2022-10-19T16:01:29.481Z,8.38
2022-10-19T16:03:57.514Z,8.51
2022-10-19T16:06:30.241Z,8.35
2022-10-19T16:08:58.813Z,8.48
2022-10-19T16:11:27.088Z,8.67
2022-10-19T16:13:54.133Z,8.57
2022-10-19T16:16:26.807Z,8.38
2022-10-19T16:18:55.072Z,8.20
2022-10-19T16:21:25.704Z,8.34
2022-10-19T16:23:53.214Z,8.60
2022-10-19T16:26:21.156Z,8.51
2022-10-19T16:28:48.861Z,8.40
2022-10-19T16:31:17.079Z,8.31
2022-10-19T16:33:44.654Z,8.24
2022-10-19T16:36:13.117Z,8.13
2022-10-19T16:38:40.569Z,7.99
2022-10-19T16:41:10.180Z,8.06
2022-10-19T16:43:38.060Z,8.13
2022-10-19T16:46:05.925Z,7.88
2022-10-19T16:48:33.458Z,8.18
2022-10-19T16:51:10.425Z,8.30
2022-10-19T16:53:38.385Z,8.19
2022-10-19T16:56:08.092Z,8.35
2022-10-19T16:58:37.197Z,8.29
2022-10-19T17:01:17.981Z,8.43
2022-10-19T17:03:46.275Z,8.52
2022-10-19T17:06:14.405Z,8.40
2022-10-19T17:09:23.247Z,8.38
2022-10-19T17:11:34.139Z,8.50
2022-10-19T17:14:04.039Z,8.46
2022-10-19T17:16:33.192Z,8.63
2022-10-19T17:19:02.990Z,8.54
2022-10-19T17:21:32.313Z,8.53
2022-10-19T17:24:01.600Z,8.47
2022-10-19T17:26:37.917Z,8.30
2022-10-19T17:29:06.407Z,8.15
2022-10-19T17:31:33.637Z,8.06
2022-10-19T17:34:01.983Z,7.90
2022-10-19T17:36:32.013Z,7.93
2022-10-19T17:39:02.009Z,8.10
2022-10-19T17:41:29.623Z,8.39
2022-10-19T17:43:57.202Z,8.30
2022-10-19T17:46:27.515Z,8.33
2022-10-19T17:48:54.941Z,8.13
2022-10-19T17:51:24.917Z,8.02
2022-10-19T17:53:55.422Z,7.84
2022-10-19T17:56:23.857Z,7.81
2022-10-19T17:58:51.359Z,7.99
2022-10-19T18:01:20.251Z,8.36
2022-10-19T18:03:48.681Z,8.21
2022-10-19T18:06:24.651Z,7.89
2022-10-19T18:08:54.903Z,8.28
2022-10-19T18:11:23.400Z,8.41
2022-10-19T18:13:51.600Z,8.35
2022-10-19T18:16:23.093Z,8.51
2022-10-19T18:18:53.277Z,8.67
2022-10-19T18:21:32.432Z,8.38
2022-10-19T18:24:35.481Z,8.33
2022-10-19T18:27:21.117Z,8.54
2022-10-19T18:29:52.701Z,7.91
2022-10-19T18:32:20.523Z,8.26
2022-10-19T18:34:47.712Z,8.48
2022-10-19T18:37:14.749Z,8.54
2022-10-19T18:39:41.856Z,8.53
2022-10-19T18:42:12.106Z,8.50
2022-10-19T18:44:39.394Z,8.55
2022-10-19T18:47:06.472Z,8.71
2022-10-19T18:49:33.655Z,8.81
2022-10-19T18:52:00.705Z,8.50
2022-10-19T18:54:28.199Z,8.41
2022-10-19T18:56:55.581Z,8.13
2022-10-19T18:59:23.159Z,8.39
2022-10-19T19:01:50.509Z,8.58
2022-10-19T19:04:17.636Z,8.55
2022-10-19T19:06:44.749Z,8.55
2022-10-19T19:09:13.106Z,8.25
2022-10-19T19:11:41.172Z,8.37
2022-10-19T19:14:14.296Z,8.28
2022-10-19T19:16:42.940Z,8.26
2022-10-19T19:19:12.072Z,8.01
2022-10-19T19:21:41.846Z,8.10
2022-10-19T19:24:10.520Z,8.30
2022-10-19T19:26:40.446Z,8.22
2022-10-19T19:29:08.175Z,8.29
2022-10-19T19:31:35.762Z,8.30
2022-10-19T19:34:05.878Z,8.21
2022-10-19T19:36:33.016Z,8.19
2022-10-19T19:39:00.245Z,8.31
2022-10-19T19:41:28.945Z,8.40
2022-10-19T19:43:58.071Z,8.36
2022-10-19T19:46:26.526Z,8.33
2022-10-19T19:49:01.814Z,8.06
2022-10-19T19:51:30.848Z,8.03
2022-10-19T19:53:58.847Z,8.25
2022-10-19T19:56:26.539Z,7.70
2022-10-19T19:58:58.116Z,7.72
2022-10-19T20:01:25.694Z,7.58
2022-10-19T20:03:52.889Z,7.75
2022-10-19T20:06:23.589Z,7.67
2022-10-19T20:08:54.594Z,7.86
2022-10-19T20:11:22.900Z,8.06
2022-10-19T20:13:50.369Z,7.63
2022-10-19T20:16:23.789Z,7.66
2022-10-19T20:19:00.290Z,7.73
2022-10-19T20:21:27.813Z,7.96
2022-10-19T20:23:54.927Z,7.96
2022-10-19T20:26:25.404Z,8.06
2022-10-19T20:28:53.119Z,7.91
2022-10-19T20:31:21.033Z,7.97
2022-10-19T20:33:48.433Z,8.10
2022-10-19T20:36:22.164Z,8.04
2022-10-19T20:38:54.643Z,8.15
2022-10-19T20:41:24.312Z,7.75
2022-10-19T20:43:53.747Z,7.94
2022-10-19T20:46:26.961Z,8.23
2022-10-19T20:48:55.988Z,8.25
2022-10-19T20:51:31.603Z,8.02
2022-10-19T20:54:02.014Z,7.88
2022-10-19T20:56:35.312Z,7.94
2022-10-19T20:59:07.686Z,7.88
2022-10-19T21:01:37.197Z,7.93
2022-10-19T21:04:06.434Z,7.80
2022-10-19T21:06:37.138Z,7.74
2022-10-19T21:09:04.589Z,7.62
2022-10-19T21:11:34.790Z,7.88
2022-10-19T21:14:13.844Z,8.06
2022-10-19T21:16:41.494Z,8.09
2022-10-19T21:19:17.898Z,8.11
2022-10-19T21:21:48.963Z,7.99
2022-10-19T21:24:20.334Z,7.97
2022-10-19T21:26:47.698Z,7.81
2022-10-19T21:29:16.198Z,7.54
2022-10-19T21:31:49.385Z,7.66
2022-10-19T21:34:29.744Z,7.61
2022-10-19T21:36:57.361Z,7.76
2022-10-19T21:39:24.517Z,7.63
2022-10-19T21:41:51.631Z,7.43
2022-10-19T21:44:19.382Z,7.60
2022-10-19T21:46:49.718Z,7.71
2022-10-19T21:49:16.982Z,7.51
2022-10-19T21:51:52.078Z,7.43
2022-10-19T21:54:22.158Z,7.35
2022-10-19T21:56:49.502Z,7.50
2022-10-19T21:59:17.319Z,7.66
2022-10-19T22:01:44.429Z,7.82
2022-10-19T22:04:14.106Z,7.66
2022-10-19T22:06:42.148Z,7.81
2022-10-19T22:09:12.304Z,7.90
2022-10-19T22:11:39.562Z,8.05
2022-10-19T22:14:06.724Z,8.20
2022-10-19T22:16:36.976Z,8.03
2022-10-19T22:19:05.766Z,8.23
2022-10-19T22:21:34.139Z,8.27
2022-10-19T22:24:05.507Z,8.04
2022-10-19T22:26:41.807Z,8.15
2022-10-19T22:29:09.038Z,7.98
2022-10-19T22:31:38.902Z,8.26
2022-10-19T22:34:11.082Z,7.70
2022-10-19T22:36:38.763Z,7.88
2022-10-19T22:39:06.932Z,7.87
2022-10-19T22:41:33.970Z,8.10
2022-10-19T22:44:01.141Z,8.13
2022-10-19T22:46:28.248Z,7.69
2022-10-19T22:48:55.335Z,7.63
2022-10-19T22:51:22.446Z,7.46
2022-10-19T22:53:49.478Z,7.47
2022-10-19T22:56:16.526Z,7.66
2022-10-19T22:58:43.571Z,7.75
2022-10-19T23:01:13.440Z,7.65
2022-10-19T23:03:40.941Z,7.71
2022-10-19T23:06:09.755Z,7.70
2022-10-19T23:08:37.595Z,7.60
2022-10-19T23:11:05.118Z,7.49
2022-10-19T23:13:32.361Z,7.56
2022-10-19T23:15:59.394Z,7.63
2022-10-19T23:18:26.615Z,7.79
2022-10-19T23:20:55.554Z,7.73
2022-10-19T23:23:23.136Z,7.81
2022-10-19T23:26:10.909Z,7.55
2022-10-19T23:28:40.536Z,7.44
2022-10-19T23:31:12.810Z,7.49
2022-10-19T23:33:40.630Z,7.47
2022-10-19T23:36:12.890Z,7.82
2022-10-19T23:38:40.522Z,8.06
2022-10-19T23:41:07.854Z,7.87
2022-10-19T23:46:07.346Z,7.94
2022-10-19T23:48:35.475Z,7.96
2022-10-19T23:51:08.389Z,7.71
2022-10-19T23:53:40.767Z,7.82
2022-10-19T23:56:29.477Z,7.88
2022-10-19T23:58:56.945Z,8.02
